sensor_id;sensor_type;location;lat;lon;timestamp;pressure;altitude;pressure_sealevel;temperature;humidity
64827;BME280;51265;53.972;12.286;2023-09-18T00:00:58;100641.25;;;16.42;100.00
64827;BME280;51265;53.972;12.286;2023-09-18T00:03:24;100647.16;;;16.40;100.00
64827;BME280;51265;53.972;12.286;2023-09-18T00:05:51;100639.78;;;16.44;100.00
64827;BME280;51265;53.972;12.286;2023-09-18T00:08:18;100634.66;;;16.47;100.00
64827;BME280;51265;53.972;12.286;2023-09-18T00:10:53;100626.31;;;16.47;100.00
64827;BME280;51265;53.972;12.286;2023-09-18T00:13:20;100632.84;;;16.51;100.00
64827;BME280;51265;53.972;12.286;2023-09-18T00:15:46;100625.81;;;16.53;100.00
64827;BME280;51265;53.972;12.286;2023-09-18T00:18:14;100627.41;;;16.54;100.00
64827;BME280;51265;53.972;12.286;2023-09-18T00:20:41;100624.03;;;16.49;100.00
64827;BME280;51265;53.972;12.286;2023-09-18T00:23:08;100615.22;;;16.47;100.00
64827;BME280;51265;53.972;12.286;2023-09-18T00:25:35;100623.91;;;16.45;100.00
64827;BME280;51265;53.972;12.286;2023-09-18T00:28:03;100613.78;;;16.40;100.00
64827;BME280;51265;53.972;12.286;2023-09-18T00:30:29;100609.41;;;16.39;100.00
64827;BME280;51265;53.972;12.286;2023-09-18T00:32:55;100604.50;;;16.36;100.00
64827;BME280;51265;53.972;12.286;2023-09-18T00:35:21;100598.94;;;16.36;100.00
64827;BME280;51265;53.972;12.286;2023-09-18T00:37:49;100604.50;;;16.36;100.00
64827;BME280;51265;53.972;12.286;2023-09-18T00:40:15;100605.97;;;16.34;100.00
64827;BME280;51265;53.972;12.286;2023-09-18T00:42:41;100604.00;;;16.34;100.00
64827;BME280;51265;53.972;12.286;2023-09-18T00:45:07;100602.41;;;16.33;100.00
64827;BME280;51265;53.972;12.286;2023-09-18T00:47:36;100598.00;;;16.32;100.00
64827;BME280;51265;53.972;12.286;2023-09-18T00:50:04;100591.63;;;16.32;100.00
64827;BME280;51265;53.972;12.286;2023-09-18T00:52:32;100582.69;;;16.26;100.00
64827;BME280;51265;53.972;12.286;2023-09-18T00:55:00;100581.03;;;16.25;100.00
64827;BME280;51265;53.972;12.286;2023-09-18T00:57:26;100579.41;;;16.24;100.00
64827;BME280;51265;53.972;12.286;2023-09-18T00:59:55;100572.25;;;16.23;100.00
64827;BME280;51265;53.972;12.286;2023-09-18T01:02:21;100573.06;;;16.24;100.00
64827;BME280;51265;53.972;12.286;2023-09-18T01:04:49;100562.75;;;16.24;100.00
64827;BME280;51265;53.972;12.286;2023-09-18T01:07:19;100560.91;;;16.28;100.00
64827;BME280;51265;53.972;12.286;2023-09-18T01:09:46;100564.50;;;16.29;100.00
64827;BME280;51265;53.972;12.286;2023-09-18T01:12:28;100562.53;;;16.29;100.00
64827;BME280;51265;53.972;12.286;2023-09-18T01:15:12;100559.31;;;16.27;100.00
64827;BME280;51265;53.972;12.286;2023-09-18T01:17:41;100549.34;;;16.26;100.00
64827;BME280;51265;53.972;12.286;2023-09-18T01:20:11;100545.41;;;16.27;100.00
64827;BME280;51265;53.972;12.286;2023-09-18T01:22:37;100549.34;;;16.26;100.00
64827;BME280;51265;53.972;12.286;2023-09-18T01:25:04;100541.19;;;16.21;100.00
64827;BME280;51265;53.972;12.286;2023-09-18T01:27:32;100538.75;;;16.19;100.00
64827;BME280;51265;53.972;12.286;2023-09-18T01:29:59;100528.16;;;16.13;100.00
64827;BME280;51265;53.972;12.286;2023-09-18T01:32:28;100517.75;;;16.10;100.00
64827;BME280;51265;53.972;12.286;2023-09-18T01:34:57;100520.03;;;16.08;100.00
64827;BME280;51265;53.972;12.286;2023-09-18T01:37:26;100517.63;;;16.06;100.00
64827;BME280;51265;53.972;12.286;2023-09-18T01:39:54;100516.00;;;16.05;100.00
64827;BME280;51265;53.972;12.286;2023-09-18T01:42:20;100514.22;;;16.01;100.00
64827;BME280;51265;53.972;12.286;2023-09-18T01:44:47;100518.16;;;16.00;100.00
64827;BME280;51265;53.972;12.286;2023-09-18T01:47:16;100519.91;;;16.04;100.00
64827;BME280;51265;53.972;12.286;2023-09-18T01:49:43;100516.47;;;16.07;100.00
64827;BME280;51265;53.972;12.286;2023-09-18T01:52:09;100510.56;;;16.09;100.00
64827;BME280;51265;53.972;12.286;2023-09-18T01:54:36;100508.94;;;16.08;100.00
64827;BME280;51265;53.972;12.286;2023-09-18T01:57:03;100502.22;;;16.09;100.00
64827;BME280;51265;53.972;12.286;2023-09-18T01:59:29;100498.09;;;16.15;100.00
64827;BME280;51265;53.972;12.286;2023-09-18T02:01:57;100502.03;;;16.14;100.00
64827;BME280;51265;53.972;12.286;2023-09-18T02:04:23;100506.44;;;16.15;100.00
64827;BME280;51265;53.972;12.286;2023-09-18T02:06:50;100503.53;;;16.11;100.00
64827;BME280;51265;53.972;12.286;2023-09-18T02:09:17;100498.63;;;16.08;100.00
64827;BME280;51265;53.972;12.286;2023-09-18T02:11:46;100491.66;;;16.02;100.00
64827;BME280;51265;53.972;12.286;2023-09-18T02:14:13;100481.81;;;16.05;100.00
64827;BME280;51265;53.972;12.286;2023-09-18T02:16:41;100472.69;;;16.04;100.00
64827;BME280;51265;53.972;12.286;2023-09-18T02:19:08;100465.16;;;16.05;100.00
64827;BME280;51265;53.972;12.286;2023-09-18T02:21:35;100467.47;;;16.03;100.00
64827;BME280;51265;53.972;12.286;2023-09-18T02:24:02;100469.31;;;15.99;100.00
64827;BME280;51265;53.972;12.286;2023-09-18T02:26:30;100471.13;;;15.94;100.00
64827;BME280;51265;53.972;12.286;2023-09-18T02:29:03;100469.16;;;15.95;100.00
64827;BME280;51265;53.972;12.286;2023-09-18T02:31:30;100465.56;;;15.94;100.00
64827;BME280;51265;53.972;12.286;2023-09-18T02:33:56;100451.91;;;15.89;100.00
64827;BME280;51265;53.972;12.286;2023-09-18T02:36:23;100442.56;;;15.94;100.00
64827;BME280;51265;53.972;12.286;2023-09-18T02:38:49;100442.00;;;16.01;100.00
64827;BME280;51265;53.972;12.286;2023-09-18T02:41:15;100435.97;;;15.99;100.00
64827;BME280;51265;53.972;12.286;2023-09-18T02:43:50;100425.31;;;16.01;100.00
64827;BME280;51265;53.972;12.286;2023-09-18T02:46:17;100423.25;;;15.98;100.00
64827;BME280;51265;53.972;12.286;2023-09-18T02:48:43;100427.16;;;15.97;100.00
64827;BME280;51265;53.972;12.286;2023-09-18T02:51:09;100420.19;;;15.90;100.00
64827;BME280;51265;53.972;12.286;2023-09-18T02:53:36;100424.28;;;15.93;100.00
64827;BME280;51265;53.972;12.286;2023-09-18T02:56:02;100428.66;;;15.94;100.00
64827;BME280;51265;53.972;12.286;2023-09-18T02:58:28;100415.81;;;15.89;100.00
64827;BME280;51265;53.972;12.286;2023-09-18T03:00:57;100405.84;;;15.88;100.00
64827;BME280;51265;53.972;12.286;2023-09-18T03:03:29;100411.88;;;15.90;100.00
64827;BME280;51265;53.972;12.286;2023-09-18T03:06:05;100408.13;;;15.86;100.00
64827;BME280;51265;53.972;12.286;2023-09-18T03:08:33;100404.91;;;15.84;100.00
64827;BME280;51265;53.972;12.286;2023-09-18T03:11:00;100408.81;;;15.83;100.00
64827;BME280;51265;53.972;12.286;2023-09-18T03:13:30;100394.47;;;15.81;100.00
64827;BME280;51265;53.972;12.286;2023-09-18T03:15:57;100394.69;;;15.76;100.00
64827;BME280;51265;53.972;12.286;2023-09-18T03:18:25;100389.13;;;15.76;100.00
64827;BME280;51265;53.972;12.286;2023-09-18T03:20:51;100383.09;;;15.74;100.00
64827;BME280;51265;53.972;12.286;2023-09-18T03:23:18;100382.13;;;15.70;100.00
64827;BME280;51265;53.972;12.286;2023-09-18T03:25:44;100369.28;;;15.65;100.00
64827;BME280;51265;53.972;12.286;2023-09-18T03:28:11;100366.34;;;15.62;100.00
64827;BME280;51265;53.972;12.286;2023-09-18T03:30:37;100363.09;;;15.60;100.00
64827;BME280;51265;53.972;12.286;2023-09-18T03:33:03;100375.31;;;15.59;100.00
64827;BME280;51265;53.972;12.286;2023-09-18T03:35:31;100364.78;;;15.52;100.00
64827;BME280;51265;53.972;12.286;2023-09-18T03:37:58;100371.16;;;15.53;100.00
64827;BME280;51265;53.972;12.286;2023-09-18T03:40:24;100367.88;;;15.51;100.00
64827;BME280;51265;53.972;12.286;2023-09-18T03:42:50;100364.66;;;15.49;100.00
64827;BME280;51265;53.972;12.286;2023-09-18T03:45:16;100359.63;;;15.42;100.00
64827;BME280;51265;53.972;12.286;2023-09-18T03:47:46;100353.25;;;15.41;100.00
64827;BME280;51265;53.972;12.286;2023-09-18T03:50:12;100356.25;;;15.36;100.00
64827;BME280;51265;53.972;12.286;2023-09-18T03:52:39;100354.84;;;15.30;100.00
64827;BME280;51265;53.972;12.286;2023-09-18T03:55:07;100358.13;;;15.24;100.00
64827;BME280;51265;53.972;12.286;2023-09-18T03:57:34;100353.78;;;15.14;100.00
64827;BME280;51265;53.972;12.286;2023-09-18T04:00:00;100348.09;;;15.10;100.00
64827;BME280;51265;53.972;12.286;2023-09-18T04:02:26;100344.38;;;15.06;100.00
64827;BME280;51265;53.972;12.286;2023-09-18T04:04:53;100338.97;;;15.10;100.00
64827;BME280;51265;53.972;12.286;2023-09-18T04:07:20;100336.88;;;15.07;100.00
64827;BME280;51265;53.972;12.286;2023-09-18T04:09:46;100332.78;;;15.04;100.00
64827;BME280;51265;53.972;12.286;2023-09-18T04:12:13;100332.41;;;15.14;100.00
64827;BME280;51265;53.972;12.286;2023-09-18T04:14:39;100327.88;;;15.10;100.00
64827;BME280;51265;53.972;12.286;2023-09-18T04:17:05;100324.16;;;15.06;100.00
64827;BME280;51265;53.972;12.286;2023-09-18T04:19:31;100328.75;;;15.02;100.00
64827;BME280;51265;53.972;12.286;2023-09-18T04:21:58;100322.25;;;14.98;100.00
64827;BME280;51265;53.972;12.286;2023-09-18T04:24:25;100328.59;;;14.98;100.00
64827;BME280;51265;53.972;12.286;2023-09-18T04:26:52;100319.66;;;14.92;100.00
64827;BME280;51265;53.972;12.286;2023-09-18T04:29:19;100306.63;;;14.93;100.00
64827;BME280;51265;53.972;12.286;2023-09-18T04:31:45;100307.56;;;14.97;100.00
64827;BME280;51265;53.972;12.286;2023-09-18T04:34:13;100307.22;;;14.99;100.00
64827;BME280;51265;53.972;12.286;2023-09-18T04:36:40;100296.78;;;14.95;100.00
64827;BME280;51265;53.972;12.286;2023-09-18T04:39:07;100300.53;;;15.00;100.00
64827;BME280;51265;53.972;12.286;2023-09-18T04:41:33;100291.25;;;14.95;100.00
64827;BME280;51265;53.972;12.286;2023-09-18T04:44:02;100304.00;;;14.97;100.00
64827;BME280;51265;53.972;12.286;2023-09-18T04:46:29;100299.09;;;14.93;100.00
64827;BME280;51265;53.972;12.286;2023-09-18T04:48:56;100291.94;;;14.92;100.00
64827;BME280;51265;53.972;12.286;2023-09-18T04:51:22;100291.09;;;14.92;100.00
64827;BME280;51265;53.972;12.286;2023-09-18T04:53:48;100283.94;;;14.91;100.00
64827;BME280;51265;53.972;12.286;2023-09-18T04:56:15;100285.91;;;14.90;100.00
64827;BME280;51265;53.972;12.286;2023-09-18T04:58:41;100291.94;;;14.92;100.00
64827;BME280;51265;53.972;12.286;2023-09-18T05:01:07;100300.13;;;14.89;100.00
64827;BME280;51265;53.972;12.286;2023-09-18T05:03:37;100290.50;;;14.86;100.00
64827;BME280;51265;53.972;12.286;2023-09-18T05:06:03;100290.16;;;14.88;100.00
64827;BME280;51265;53.972;12.286;2023-09-18T05:08:30;100289.63;;;14.94;100.00
64827;BME280;51265;53.972;12.286;2023-09-18T05:10:57;100285.69;;;14.95;100.00
64827;BME280;51265;53.972;12.286;2023-09-18T05:13:23;100288.41;;;15.04;100.00
64827;BME280;51265;53.972;12.286;2023-09-18T05:15:50;100288.63;;;15.20;100.00
64827;BME280;51265;53.972;12.286;2023-09-18T05:18:16;100275.31;;;15.34;100.00
64827;BME280;51265;53.972;12.286;2023-09-18T05:20:42;100267.03;;;15.47;100.00
64827;BME280;51265;53.972;12.286;2023-09-18T05:23:08;100258.50;;;15.52;100.00
64827;BME280;51265;53.972;12.286;2023-09-18T05:25:35;100266.88;;;15.64;100.00
64827;BME280;51265;53.972;12.286;2023-09-18T05:28:04;100256.03;;;15.71;100.00
64827;BME280;51265;53.972;12.286;2023-09-18T05:30:33;100247.53;;;15.76;100.00
64827;BME280;51265;53.972;12.286;2023-09-18T05:33:05;100235.75;;;15.91;100.00
64827;BME280;51265;53.972;12.286;2023-09-18T05:35:40;100225.34;;;16.01;100.00
64827;BME280;51265;53.972;12.286;2023-09-18T05:38:08;100224.91;;;16.11;100.00
64827;BME280;51265;53.972;12.286;2023-09-18T05:40:35;100216.34;;;16.16;100.00
64827;BME280;51265;53.972;12.286;2023-09-18T05:43:02;100209.84;;;16.24;100.00
64827;BME280;51265;53.972;12.286;2023-09-18T05:45:28;100206.38;;;16.27;100.00
64827;BME280;51265;53.972;12.286;2023-09-18T05:47:55;100203.81;;;16.34;100.00
64827;BME280;51265;53.972;12.286;2023-09-18T05:50:28;100195.72;;;16.41;100.00
64827;BME280;51265;53.972;12.286;2023-09-18T05:52:56;100194.78;;;16.37;100.00
64827;BME280;51265;53.972;12.286;2023-09-18T05:55:26;100185.28;;;16.38;100.00
64827;BME280;51265;53.972;12.286;2023-09-18T05:57:53;100177.06;;;16.42;100.00
64827;BME280;51265;53.972;12.286;2023-09-18T06:00:20;100177.44;;;16.40;100.00
64827;BME280;51265;53.972;12.286;2023-09-18T06:02:48;100172.09;;;16.48;100.00
64827;BME280;51265;53.972;12.286;2023-09-18T06:05:14;100169.31;;;16.60;100.00
64827;BME280;51265;53.972;12.286;2023-09-18T06:07:41;100156.22;;;16.73;100.00
64827;BME280;51265;53.972;12.286;2023-09-18T06:10:08;100149.78;;;16.84;100.00
64827;BME280;51265;53.972;12.286;2023-09-18T06:12:35;100151.38;;;16.98;100.00
64827;BME280;51265;53.972;12.286;2023-09-18T06:15:01;100144.09;;;17.21;100.00
64827;BME280;51265;53.972;12.286;2023-09-18T06:17:27;100133.72;;;17.50;100.00
64827;BME280;51265;53.972;12.286;2023-09-18T06:19:53;100122.72;;;17.69;100.00
64827;BME280;51265;53.972;12.286;2023-09-18T06:22:19;100120.50;;;17.90;100.00
64827;BME280;51265;53.972;12.286;2023-09-18T06:24:45;100106.56;;;18.06;100.00
64827;BME280;51265;53.972;12.286;2023-09-18T06:27:12;100101.28;;;18.21;100.00
64827;BME280;51265;53.972;12.286;2023-09-18T06:29:38;100100.09;;;18.37;100.00
64827;BME280;51265;53.972;12.286;2023-09-18T06:32:05;100091.69;;;18.53;100.00
64827;BME280;51265;53.972;12.286;2023-09-18T06:34:32;100084.78;;;18.66;100.00
64827;BME280;51265;53.972;12.286;2023-09-18T06:36:58;100073.00;;;18.73;100.00
64827;BME280;51265;53.972;12.286;2023-09-18T06:39:24;100064.63;;;18.73;100.00
64827;BME280;51265;53.972;12.286;2023-09-18T06:41:52;100056.09;;;18.66;100.00
64827;BME280;51265;53.972;12.286;2023-09-18T06:44:19;100050.28;;;18.55;100.00
64827;BME280;51265;53.972;12.286;2023-09-18T06:46:45;100042.22;;;18.50;100.00
64827;BME280;51265;53.972;12.286;2023-09-18T06:49:11;100043.69;;;18.44;100.00
64827;BME280;51265;53.972;12.286;2023-09-18T06:51:37;100041.91;;;18.36;100.00
64827;BME280;51265;53.972;12.286;2023-09-18T06:54:04;100035.47;;;18.32;100.00
64827;BME280;51265;53.972;12.286;2023-09-18T06:56:30;100037.06;;;18.33;100.00
64827;BME280;51265;53.972;12.286;2023-09-18T06:58:56;100036.25;;;18.32;100.00
64827;BME280;51265;53.972;12.286;2023-09-18T07:01:22;100027.97;;;18.36;100.00
64827;BME280;51265;53.972;12.286;2023-09-18T07:03:50;100026.50;;;18.42;100.00
64827;BME280;51265;53.972;12.286;2023-09-18T07:06:16;100024.91;;;18.60;100.00
64827;BME280;51265;53.972;12.286;2023-09-18T07:08:44;100019.25;;;18.76;100.00
64827;BME280;51265;53.972;12.286;2023-09-18T07:11:11;100019.53;;;18.90;100.00
64827;BME280;51265;53.972;12.286;2023-09-18T07:13:38;100014.66;;;19.07;100.00
64827;BME280;51265;53.972;12.286;2023-09-18T07:16:05;100006.84;;;19.16;100.00
64827;BME280;51265;53.972;12.286;2023-09-18T07:18:32;100003.88;;;19.28;100.00
64827;BME280;51265;53.972;12.286;2023-09-18T07:20:58;99995.66;;;19.39;100.00
64827;BME280;51265;53.972;12.286;2023-09-18T07:23:25;99989.06;;;19.51;100.00
64827;BME280;51265;53.972;12.286;2023-09-18T07:25:51;99979.72;;;19.62;100.00
64827;BME280;51265;53.972;12.286;2023-09-18T07:28:17;99971.06;;;19.71;100.00
64827;BME280;51265;53.972;12.286;2023-09-18T07:30:46;99964.06;;;19.84;100.00
64827;BME280;51265;53.972;12.286;2023-09-18T07:33:14;99952.19;;;19.91;100.00
64827;BME280;51265;53.972;12.286;2023-09-18T07:35:47;99941.19;;;20.05;100.00
64827;BME280;51265;53.972;12.286;2023-09-18T07:38:14;99930.91;;;20.13;98.01
64827;BME280;51265;53.972;12.286;2023-09-18T07:40:40;99922.25;;;20.22;97.22
64827;BME280;51265;53.972;12.286;2023-09-18T07:43:06;99921.59;;;20.35;96.26
64827;BME280;51265;53.972;12.286;2023-09-18T07:45:33;99915.34;;;20.46;95.03
64827;BME280;51265;53.972;12.286;2023-09-18T07:48:00;99911.53;;;20.61;94.29
64827;BME280;51265;53.972;12.286;2023-09-18T07:50:26;99897.97;;;20.63;93.08
64827;BME280;51265;53.972;12.286;2023-09-18T07:52:53;99907.72;;;20.80;93.15
64827;BME280;51265;53.972;12.286;2023-09-18T07:55:19;99892.19;;;20.89;92.48
64827;BME280;51265;53.972;12.286;2023-09-18T07:57:45;99889.91;;;20.99;91.01
64827;BME280;51265;53.972;12.286;2023-09-18T08:00:12;99885.19;;;21.10;90.31
64827;BME280;51265;53.972;12.286;2023-09-18T08:02:40;99876.94;;;21.28;89.44
64827;BME280;51265;53.972;12.286;2023-09-18T08:05:06;99875.03;;;21.43;88.91
64827;BME280;51265;53.972;12.286;2023-09-18T08:07:37;99866.31;;;21.55;88.08
64827;BME280;51265;53.972;12.286;2023-09-18T08:10:04;99853.19;;;21.70;86.68
64827;BME280;51265;53.972;12.286;2023-09-18T08:12:35;99860.50;;;21.92;86.68
64827;BME280;51265;53.972;12.286;2023-09-18T08:15:02;99849.31;;;21.99;84.87
64827;BME280;51265;53.972;12.286;2023-09-18T08:17:28;99838.91;;;22.07;83.50
64827;BME280;51265;53.972;12.286;2023-09-18T08:19:55;99827.72;;;22.10;82.97
64827;BME280;51265;53.972;12.286;2023-09-18T08:22:21;99826.50;;;22.08;82.62
64827;BME280;51265;53.972;12.286;2023-09-18T08:24:48;99832.22;;;22.29;82.66
64827;BME280;51265;53.972;12.286;2023-09-18T08:27:14;99831.81;;;22.34;81.54
64827;BME280;51265;53.972;12.286;2023-09-18T08:29:45;99831.81;;;22.52;81.37
64827;BME280;51265;53.972;12.286;2023-09-18T08:32:11;99827.44;;;22.69;81.04
64827;BME280;51265;53.972;12.286;2023-09-18T08:34:37;99826.63;;;22.86;80.61
64827;BME280;51265;53.972;12.286;2023-09-18T08:37:04;99821.47;;;22.92;79.30
64827;BME280;51265;53.972;12.286;2023-09-18T08:39:30;99801.41;;;23.01;78.27
64827;BME280;51265;53.972;12.286;2023-09-18T08:42:03;99802.16;;;23.16;78.27
64827;BME280;51265;53.972;12.286;2023-09-18T08:44:30;99784.13;;;23.20;77.30
64827;BME280;51265;53.972;12.286;2023-09-18T08:46:57;99761.28;;;23.04;76.42
64827;BME280;51265;53.972;12.286;2023-09-18T08:49:24;99763.28;;;23.03;76.41
64827;BME280;51265;53.972;12.286;2023-09-18T08:51:54;99775.69;;;23.13;76.49
64827;BME280;51265;53.972;12.286;2023-09-18T08:54:22;99766.84;;;23.18;75.94
64827;BME280;51265;53.972;12.286;2023-09-18T08:56:53;99753.59;;;23.33;75.69
64827;BME280;51265;53.972;12.286;2023-09-18T08:59:21;99757.09;;;23.58;75.52
64827;BME280;51265;53.972;12.286;2023-09-18T09:01:48;99744.59;;;23.74;74.49
64827;BME280;51265;53.972;12.286;2023-09-18T09:04:14;99733.25;;;23.92;73.89
64827;BME280;51265;53.972;12.286;2023-09-18T09:06:40;99727.53;;;24.02;72.97
64827;BME280;51265;53.972;12.286;2023-09-18T09:09:07;99715.00;;;24.14;72.42
64827;BME280;51265;53.972;12.286;2023-09-18T09:11:34;99712.84;;;24.32;72.05
64827;BME280;51265;53.972;12.286;2023-09-18T09:14:14;99690.72;;;24.42;71.19
64827;BME280;51265;53.972;12.286;2023-09-18T09:16:54;99685.78;;;24.53;70.57
64827;BME280;51265;53.972;12.286;2023-09-18T09:19:32;99694.06;;;24.71;70.67
64827;BME280;51265;53.972;12.286;2023-09-18T09:21:59;99695.47;;;24.90;69.89
64827;BME280;51265;53.972;12.286;2023-09-18T09:24:42;99682.31;;;25.17;69.23
64827;BME280;51265;53.972;12.286;2023-09-18T09:27:10;99682.41;;;25.41;67.78
64827;BME280;51265;53.972;12.286;2023-09-18T09:29:37;99666.53;;;25.54;67.10
64827;BME280;51265;53.972;12.286;2023-09-18T09:32:17;99666.06;;;25.59;66.96
64827;BME280;51265;53.972;12.286;2023-09-18T09:34:44;99648.38;;;25.58;66.27
64827;BME280;51265;53.972;12.286;2023-09-18T09:37:12;99647.28;;;25.49;66.53
64827;BME280;51265;53.972;12.286;2023-09-18T09:39:47;99634.03;;;25.46;65.93
64827;BME280;51265;53.972;12.286;2023-09-18T09:42:17;99627.53;;;25.49;65.33
64827;BME280;51265;53.972;12.286;2023-09-18T09:45:02;99638.97;;;25.65;65.60
64827;BME280;51265;53.972;12.286;2023-09-18T09:47:34;99617.59;;;25.68;64.04
64827;BME280;51265;53.972;12.286;2023-09-18T09:50:09;99605.31;;;25.81;63.87
64827;BME280;51265;53.972;12.286;2023-09-18T09:52:43;99593.19;;;26.08;63.87
64827;BME280;51265;53.972;12.286;2023-09-18T09:55:24;99594.44;;;26.07;63.10
64827;BME280;51265;53.972;12.286;2023-09-18T09:57:53;99578.25;;;26.11;63.06
64827;BME280;51265;53.972;12.286;2023-09-18T10:00:25;99580.44;;;26.23;62.23
64827;BME280;51265;53.972;12.286;2023-09-18T10:03:00;99584.22;;;26.37;62.06
64827;BME280;51265;53.972;12.286;2023-09-18T10:05:32;99604.38;;;26.39;61.87
64827;BME280;51265;53.972;12.286;2023-09-18T10:08:00;99607.53;;;26.41;62.25
64827;BME280;51265;53.972;12.286;2023-09-18T10:10:29;99609.88;;;26.46;61.57
64827;BME280;51265;53.972;12.286;2023-09-18T10:13:00;99599.72;;;26.52;61.26
64827;BME280;51265;53.972;12.286;2023-09-18T10:15:29;99612.81;;;26.62;61.12
64827;BME280;51265;53.972;12.286;2023-09-18T10:18:00;99626.44;;;27.07;61.85
64827;BME280;51265;53.972;12.286;2023-09-18T10:20:29;99630.81;;;27.31;60.64
64827;BME280;51265;53.972;12.286;2023-09-18T10:22:56;99620.44;;;27.61;60.03
64827;BME280;51265;53.972;12.286;2023-09-18T10:25:28;99619.81;;;27.90;59.53
64827;BME280;51265;53.972;12.286;2023-09-18T10:27:57;99597.88;;;27.77;58.63
64827;BME280;51265;53.972;12.286;2023-09-18T10:30:29;99592.03;;;27.85;57.88
64827;BME280;51265;53.972;12.286;2023-09-18T10:32:56;99581.25;;;27.79;58.13
64827;BME280;51265;53.972;12.286;2023-09-18T10:35:23;99597.00;;;27.97;58.41
64827;BME280;51265;53.972;12.286;2023-09-18T10:37:50;99589.88;;;28.21;57.83
64827;BME280;51265;53.972;12.286;2023-09-18T10:40:20;99584.41;;;28.47;57.28
64827;BME280;51265;53.972;12.286;2023-09-18T10:42:48;99587.69;;;28.87;56.84
64827;BME280;51265;53.972;12.286;2023-09-18T10:45:16;99584.19;;;29.25;55.87
64827;BME280;51265;53.972;12.286;2023-09-18T10:47:44;99569.44;;;29.43;55.27
64827;BME280;51265;53.972;12.286;2023-09-18T10:50:25;99535.88;;;29.16;54.16
64827;BME280;51265;53.972;12.286;2023-09-18T10:52:52;99524.84;;;28.63;54.40
64827;BME280;51265;53.972;12.286;2023-09-18T10:55:19;99542.72;;;28.31;55.60
64827;BME280;51265;53.972;12.286;2023-09-18T10:57:55;99560.88;;;28.17;56.28
64827;BME280;51265;53.972;12.286;2023-09-18T11:00:25;99575.06;;;28.01;57.14
64827;BME280;51265;53.972;12.286;2023-09-18T11:02:51;99572.75;;;27.79;57.17
64827;BME280;51265;53.972;12.286;2023-09-18T11:05:31;99559.81;;;27.62;57.02
64827;BME280;51265;53.972;12.286;2023-09-18T11:08:34;99571.84;;;27.66;57.07
64827;BME280;51265;53.972;12.286;2023-09-18T11:13:45;99570.13;;;28.05;56.44
64827;BME280;51265;53.972;12.286;2023-09-18T11:16:33;99550.66;;;27.74;55.69
64827;BME280;51265;53.972;12.286;2023-09-18T11:19:08;99540.91;;;27.43;56.66
64827;BME280;51265;53.972;12.286;2023-09-18T11:21:34;99544.66;;;27.20;56.73
64827;BME280;51265;53.972;12.286;2023-09-18T11:24:03;99560.47;;;26.97;57.50
64827;BME280;51265;53.972;12.286;2023-09-18T11:26:31;99561.00;;;26.72;58.39
64827;BME280;51265;53.972;12.286;2023-09-18T11:29:06;99592.69;;;26.60;58.58
64827;BME280;51265;53.972;12.286;2023-09-18T11:31:49;99605.69;;;26.54;58.52
64827;BME280;51265;53.972;12.286;2023-09-18T11:34:21;99608.06;;;26.59;59.05
64827;BME280;51265;53.972;12.286;2023-09-18T11:36:48;99606.75;;;26.40;59.27
64827;BME280;51265;53.972;12.286;2023-09-18T11:39:37;99603.00;;;26.23;59.26
64827;BME280;51265;53.972;12.286;2023-09-18T11:42:22;99613.94;;;25.98;60.95
64827;BME280;51265;53.972;12.286;2023-09-18T11:44:56;99611.41;;;25.80;61.58
64827;BME280;51265;53.972;12.286;2023-09-18T11:47:25;99621.00;;;25.55;61.87
64827;BME280;51265;53.972;12.286;2023-09-18T11:49:58;99628.22;;;25.29;62.76
64827;BME280;51265;53.972;12.286;2023-09-18T11:52:26;99641.25;;;25.16;63.35
64827;BME280;51265;53.972;12.286;2023-09-18T11:54:56;99663.13;;;25.05;64.08
64827;BME280;51265;53.972;12.286;2023-09-18T11:57:23;99670.56;;;24.88;64.58
64827;BME280;51265;53.972;12.286;2023-09-18T11:59:50;99668.81;;;24.60;65.02
64827;BME280;51265;53.972;12.286;2023-09-18T12:02:29;99688.31;;;24.36;66.54
64827;BME280;51265;53.972;12.286;2023-09-18T12:05:24;99681.22;;;24.21;67.13
64827;BME280;51265;53.972;12.286;2023-09-18T12:07:52;99681.13;;;24.28;67.29
64827;BME280;51265;53.972;12.286;2023-09-18T12:10:19;99684.31;;;24.38;67.13
64827;BME280;51265;53.972;12.286;2023-09-18T12:12:49;99655.28;;;24.48;66.38
64827;BME280;51265;53.972;12.286;2023-09-18T12:15:19;99658.31;;;24.64;65.85
64827;BME280;51265;53.972;12.286;2023-09-18T12:17:46;99659.84;;;24.72;66.66
64827;BME280;51265;53.972;12.286;2023-09-18T12:20:18;99648.59;;;24.72;65.92
64827;BME280;51265;53.972;12.286;2023-09-18T12:22:48;99666.47;;;24.93;66.24
64827;BME280;51265;53.972;12.286;2023-09-18T12:25:15;99651.31;;;25.17;65.29
64827;BME280;51265;53.972;12.286;2023-09-18T12:27:43;99645.78;;;25.41;64.57
64827;BME280;51265;53.972;12.286;2023-09-18T12:30:11;99639.06;;;25.58;64.28
64827;BME280;51265;53.972;12.286;2023-09-18T12:32:39;99628.88;;;25.68;63.96
64827;BME280;51265;53.972;12.286;2023-09-18T12:35:08;99629.47;;;25.82;63.56
64827;BME280;51265;53.972;12.286;2023-09-18T12:37:39;99634.16;;;25.93;63.90
64827;BME280;51265;53.972;12.286;2023-09-18T12:42:50;99625.47;;;26.30;62.53
64827;BME280;51265;53.972;12.286;2023-09-18T12:45:16;99622.88;;;26.40;61.99
64827;BME280;51265;53.972;12.286;2023-09-18T12:47:43;99593.19;;;26.31;61.19
64827;BME280;51265;53.972;12.286;2023-09-18T12:50:12;99585.72;;;25.98;60.69